HRHO2: North Canadian River

Data processed at Thu May 23 2019 23:50


All information presented herein is the property of the government of the United States of America and may be revised or deleted at any time without prior notice.
Dissemination of this information without the expressed written consent of the Public Affairs Office, Tulsa District U.S. Army Corps of Engineers is strictly prohibited.
These data are gathered electronically and, as presented, have not undergone any form of quality control. These data are not guaranteed to be valid or correct.
Go to home page.
Go to station list.
Go to home page.

Upstream stations:

Downstream station:
Previous Day
Next Day
Current Day
    
SHEF ID:       HRHO2     North Canadian River near Harrah
STATION TYPE:  
Regulating: Stage =    15.00, Flow =    10547

                STAGE  RIV-FLOW  WTR-TEMP   DIS-OXY        PH   CONDUCT  BAT-LOAD
                   ft       cfs         F      mg/l        su   umho/cm      volt
              Ccp-Rev   Ccp-Rev   Ccp-Rev   Ccp-Rev   Ccp-Rev   Ccp-Rev   Ccp-Rev
(US/Central)
05/23 00:00     15.23     10889     68.16     63.35      7.69       359     12.65
05/23 01:00     15.28     10964     68.07     64.81      7.68       371     12.65
05/23 02:00     15.45     11218     67.98     65.91      7.69       379     12.65
05/23 03:00     15.59     11428     67.95     67.15      7.70       382     12.65
05/23 04:00     15.65     11519     67.93     67.94      7.70       385     12.65
05/23 05:00     15.81     11763     67.91     68.97      7.68       388     12.57
05/23 06:00     15.90     11902     67.91     68.83      7.69       393     12.57
05/23 07:00     15.94     11963     67.93     69.43      7.71       401     12.57
05/23 08:00     16.02     12087     68.04     69.61      7.67       409     12.57
05/23 09:00     16.14     12274     68.16     69.26      7.66       418     12.57
05/23 10:00     16.08     12181     68.40     68.33      7.66       423     12.65
05/23 11:00     16.18     12337     68.72     67.58      7.66       428     12.81
05/23 12:00     16.27     12479     69.17     66.16      7.65       434     12.97
05/23 13:00     16.29     12510     69.55     64.92      7.63       437     13.13
05/23 14:00     16.29     12510     69.89     64.62      7.66       437     12.97
05/23 15:00     16.33     12573     70.36     63.27      7.63       441     13.13
05/23 16:00     16.35     12605     70.81     61.90      7.66       444     13.05
05/23 17:00     16.32     12557     71.15     60.84      7.65       446     12.97
05/23 18:00     16.31     12542     71.37     59.94      7.65       449     12.97
05/23 19:00     16.29     12510     71.49     60.20      7.65       452     12.89
05/23 20:00     16.24     12431     71.51     60.12      7.66       454     12.81
05/23 21:00     16.18     12337     71.47     60.00      7.66       456     12.73
05/23 22:00     16.10     12212     71.42     60.28      7.69       457     12.65
05/23 23:00     16.06     12150     71.38     61.05      7.66       458     12.65